createdAt,value
2022-08-16T00:00:53.105Z,3.65
2022-08-16T00:04:45.863Z,4.30
2022-08-16T00:08:45.878Z,3.35
2022-08-16T00:12:41.863Z,3.40
2022-08-16T00:17:05.297Z,3.70
2022-08-16T00:20:48.554Z,3.80
2022-08-16T00:24:44.959Z,3.65
2022-08-16T00:28:39.367Z,3.50
2022-08-16T00:32:32.771Z,3.85
2022-08-16T00:36:25.555Z,3.60
2022-08-16T00:40:34.826Z,4.13
2022-08-16T00:44:31.766Z,3.47
2022-08-16T00:48:28.589Z,4.03
2022-08-16T00:52:29.654Z,3.83
2022-08-16T00:56:56.824Z,3.50
2022-08-16T01:00:43.576Z,4.40
2022-08-16T01:04:36.388Z,4.07
2022-08-16T01:08:35.862Z,3.80
2022-08-16T01:12:29.747Z,3.90
2022-08-16T01:16:25.910Z,3.97
2022-08-16T01:20:30.204Z,3.83
2022-08-16T01:24:45.296Z,3.92
2022-08-16T01:28:47.589Z,3.70
2022-08-16T01:32:42.591Z,4.00
2022-08-16T01:36:36.704Z,3.60
2022-08-16T01:40:30.633Z,3.67
2022-08-16T01:44:23.617Z,3.90
2022-08-16T01:48:32.305Z,4.00
2022-08-16T01:52:30.198Z,4.18
2022-08-16T01:56:25.394Z,4.18
2022-08-16T02:00:19.447Z,3.25
2022-08-16T02:04:12.204Z,3.38
2022-08-16T02:08:33.876Z,3.35
2022-08-16T02:12:50.788Z,3.92
2022-08-16T02:16:44.668Z,3.65
2022-08-16T02:24:42.043Z,3.30
2022-08-16T02:28:35.246Z,3.60
2022-08-16T02:32:50.623Z,3.85
2022-08-16T02:36:49.503Z,3.42
2022-08-16T02:40:43.468Z,4.35
2022-08-16T02:44:36.295Z,3.53
2022-08-16T02:48:36.226Z,3.50
2022-08-16T02:52:31.700Z,3.70
2022-08-16T02:56:25.529Z,3.53
2022-08-16T03:00:33.530Z,3.53
2022-08-16T03:04:48.839Z,3.47
2022-08-16T03:08:51.316Z,3.67
2022-08-16T03:12:56.270Z,4.30
2022-08-16T03:17:00.177Z,3.92
2022-08-16T03:20:55.773Z,3.90
2022-08-16T03:24:48.604Z,3.90
2022-08-16T03:28:41.495Z,4.40
2022-08-16T03:32:35.012Z,4.13
2022-08-16T03:36:31.222Z,3.88
2022-08-16T03:40:32.915Z,3.85
2022-08-16T03:44:44.516Z,3.90
2022-08-16T03:48:41.271Z,4.07
2022-08-16T03:52:35.409Z,4.23
2022-08-16T03:56:30.414Z,3.90
2022-08-16T04:00:36.061Z,4.07
2022-08-16T04:04:36.497Z,4.22
2022-08-16T04:08:31.416Z,4.13
2022-08-16T04:12:53.220Z,3.85
2022-08-16T04:16:40.574Z,4.20
2022-08-16T04:20:37.082Z,4.20
2022-08-16T04:24:29.639Z,4.70
2022-08-16T04:28:51.900Z,4.43
2022-08-16T04:32:35.566Z,4.75
2022-08-16T04:36:29.097Z,4.22
2022-08-16T04:40:25.214Z,4.30
2022-08-16T04:44:31.032Z,4.30
2022-08-16T04:48:32.779Z,4.13
2022-08-16T04:52:34.595Z,4.88
2022-08-16T04:56:27.955Z,5.05
2022-08-16T05:00:32.201Z,5.22
2022-08-16T05:04:26.051Z,5.18
2022-08-16T05:08:29.566Z,5.13
2022-08-16T05:12:30.638Z,4.78
2022-08-16T05:16:30.082Z,5.13
2022-08-16T05:20:39.367Z,4.80
2022-08-16T05:24:36.036Z,4.57
2022-08-16T05:28:31.098Z,4.00
2022-08-16T05:32:32.860Z,5.00
2022-08-16T05:36:35.831Z,4.85
2022-08-16T05:40:29.842Z,4.80
2022-08-16T05:44:26.544Z,5.38
2022-08-16T05:52:20.716Z,5.05
2022-08-16T05:56:19.471Z,5.07
2022-08-16T06:00:14.370Z,5.53
2022-08-16T06:04:35.582Z,4.75
2022-08-16T06:08:32.279Z,4.80
2022-08-16T06:12:34.972Z,4.47
2022-08-16T06:16:27.617Z,4.38
2022-08-16T06:20:35.505Z,4.22
2022-08-16T06:24:53.455Z,5.18
2022-08-16T06:28:42.022Z,4.90
2022-08-16T06:32:38.346Z,4.72
2022-08-16T06:36:36.218Z,5.18
2022-08-16T06:40:33.730Z,4.80
2022-08-16T06:44:27.030Z,4.40
2022-08-16T06:48:20.266Z,4.03
2022-08-16T06:56:38.232Z,4.25
2022-08-16T07:00:31.122Z,4.50
2022-08-16T07:04:31.914Z,4.40
2022-08-16T07:08:27.930Z,4.63
2022-08-16T07:12:21.118Z,4.30
2022-08-16T07:16:29.404Z,4.03
2022-08-16T07:20:35.171Z,4.45
2022-08-16T07:24:31.175Z,5.13
2022-08-16T07:28:24.458Z,4.37
2022-08-16T07:32:29.435Z,5.00
2022-08-16T07:36:22.961Z,5.20
2022-08-16T07:40:16.439Z,5.53
2022-08-16T07:44:15.343Z,5.33
2022-08-16T07:48:11.829Z,5.00
2022-08-16T07:56:13.064Z,5.00
2022-08-16T08:00:08.303Z,4.28
2022-08-16T08:04:13.477Z,4.40
2022-08-16T08:08:11.924Z,4.40
2022-08-16T08:12:31.550Z,4.50
2022-08-16T08:16:30.310Z,4.68
2022-08-16T08:20:28.454Z,4.00
2022-08-16T08:24:31.552Z,4.72
2022-08-16T08:28:25.664Z,4.63
2022-08-16T08:32:58.593Z,4.20
2022-08-16T08:36:37.036Z,3.80
2022-08-16T08:44:28.803Z,4.25
2022-08-16T08:48:33.380Z,4.43
2022-08-16T08:52:34.459Z,4.38
2022-08-16T08:56:35.119Z,5.72
2022-08-16T09:00:30.074Z,12.77
2022-08-16T09:04:23.114Z,4.60
2022-08-16T09:08:17.362Z,4.30
2022-08-16T09:12:35.649Z,4.55
2022-08-16T09:17:01.661Z,3.70
2022-08-16T09:20:36.546Z,4.03
2022-08-16T09:24:53.578Z,4.47
2022-08-16T09:29:14.773Z,3.90
2022-08-16T09:32:59.509Z,3.67
2022-08-16T09:36:54.531Z,3.65
2022-08-16T09:40:47.920Z,4.03
2022-08-16T09:45:12.779Z,3.67
2022-08-16T09:48:56.486Z,3.78
2022-08-16T09:52:49.738Z,3.75
2022-08-16T09:56:51.403Z,3.85
2022-08-16T10:04:54.461Z,3.53
2022-08-16T10:09:04.186Z,3.77
2022-08-16T10:13:12.102Z,3.58
2022-08-16T10:17:06.937Z,3.97
2022-08-16T10:24:55.834Z,3.88
2022-08-16T10:28:52.999Z,3.90
2022-08-16T10:32:47.321Z,3.92
2022-08-16T10:36:40.511Z,3.83
2022-08-16T10:40:33.171Z,3.60
2022-08-16T10:44:25.663Z,3.33
2022-08-16T10:48:27.343Z,3.50
2022-08-16T10:52:24.336Z,3.70
2022-08-16T10:56:52.594Z,3.67
2022-08-16T11:00:33.159Z,3.15
2022-08-16T11:05:05.427Z,3.60
2022-08-16T11:08:44.927Z,3.78
2022-08-16T11:12:39.790Z,3.38
2022-08-16T11:20:48.759Z,3.35
2022-08-16T11:24:44.974Z,3.33
2022-08-16T11:32:50.473Z,3.20
2022-08-16T11:36:53.831Z,3.38
2022-08-16T11:40:59.148Z,3.53
2022-08-16T11:44:56.268Z,4.15
2022-08-16T11:48:51.862Z,3.60
2022-08-16T11:52:46.376Z,3.20
2022-08-16T11:56:52.869Z,3.17
2022-08-16T12:00:52.782Z,2.88
2022-08-16T12:04:46.095Z,3.13
2022-08-16T12:08:46.784Z,3.55
2022-08-16T12:12:39.626Z,3.65
2022-08-16T12:16:34.439Z,3.38
2022-08-16T12:20:31.825Z,2.70
2022-08-16T12:24:25.866Z,2.83
2022-08-16T12:28:36.625Z,2.60
2022-08-16T12:32:39.415Z,2.90
2022-08-16T12:36:35.366Z,3.17
2022-08-16T12:40:32.628Z,2.90
2022-08-16T12:44:26.708Z,3.08
2022-08-16T12:48:46.682Z,2.97
2022-08-16T12:52:52.538Z,2.70
2022-08-16T12:56:47.072Z,3.03
2022-08-16T13:00:40.947Z,3.15
2022-08-16T13:04:35.615Z,2.92
2022-08-16T13:08:30.806Z,2.90
2022-08-16T13:12:28.263Z,2.78
2022-08-16T13:16:21.256Z,2.90
2022-08-16T13:20:20.633Z,3.10
2022-08-16T13:24:13.809Z,2.88
2022-08-16T13:32:10.858Z,2.80
2022-08-16T13:36:48.076Z,3.17
2022-08-16T13:40:35.976Z,2.95
2022-08-16T13:44:48.977Z,2.80
2022-08-16T13:48:44.366Z,3.15
2022-08-16T13:52:39.789Z,2.70
2022-08-16T13:56:38.863Z,2.67
2022-08-16T14:00:34.288Z,3.08
2022-08-16T14:04:31.335Z,2.90
2022-08-16T14:08:27.309Z,2.85
2022-08-16T14:12:29.378Z,2.50
2022-08-16T14:16:24.511Z,2.50
2022-08-16T14:20:26.553Z,2.63
2022-08-16T14:24:30.210Z,2.95
2022-08-16T14:28:25.736Z,2.50
2022-08-16T14:36:30.067Z,2.80
2022-08-16T14:40:23.650Z,2.70
2022-08-16T14:44:21.771Z,2.80
2022-08-16T14:48:14.284Z,2.72
2022-08-16T14:52:27.625Z,2.72
2022-08-16T14:56:38.525Z,2.50
2022-08-16T15:00:36.446Z,2.80
2022-08-16T15:04:39.695Z,2.80
2022-08-16T15:08:36.200Z,2.60
2022-08-16T15:12:33.860Z,3.00
2022-08-16T15:16:28.925Z,2.60
2022-08-16T15:20:26.306Z,2.60
2022-08-16T15:24:22.591Z,2.78
2022-08-16T15:28:30.934Z,2.70
2022-08-16T15:32:26.821Z,2.75
2022-08-16T15:36:21.359Z,3.10
2022-08-16T15:40:32.127Z,3.40
2022-08-16T15:44:38.919Z,3.72
2022-08-16T15:48:45.880Z,3.40
2022-08-16T15:52:38.390Z,3.03
2022-08-16T15:56:31.450Z,3.15
2022-08-16T16:00:26.789Z,3.33
2022-08-16T16:04:22.882Z,3.90
2022-08-16T16:08:24.039Z,3.67
2022-08-16T16:12:50.473Z,4.43
2022-08-16T16:16:30.248Z,3.03
2022-08-16T16:20:27.543Z,2.35
2022-08-16T16:24:23.611Z,2.50
2022-08-16T16:28:46.315Z,2.60
2022-08-16T16:32:34.704Z,2.70
2022-08-16T16:36:33.317Z,2.83
2022-08-16T16:40:32.307Z,2.70
2022-08-16T16:44:33.535Z,2.67
2022-08-16T16:48:35.131Z,2.70
2022-08-16T16:52:44.127Z,2.50
2022-08-16T16:56:37.858Z,2.60
2022-08-16T17:00:38.153Z,2.92
2022-08-16T17:04:32.674Z,2.92
2022-08-16T17:08:25.884Z,2.72
2022-08-16T17:12:25.008Z,3.08
2022-08-16T17:16:33.057Z,3.47
2022-08-16T17:20:27.338Z,2.80
2022-08-16T17:24:24.497Z,2.90
2022-08-16T17:28:59.870Z,2.80
2022-08-16T17:32:48.205Z,2.85
2022-08-16T17:36:52.700Z,3.05
2022-08-16T17:40:58.232Z,2.63
2022-08-16T17:44:51.084Z,2.70
2022-08-16T17:48:43.686Z,2.75
2022-08-16T17:52:36.237Z,2.75
2022-08-16T17:56:41.929Z,2.80
2022-08-16T18:00:34.563Z,3.10
2022-08-16T18:04:48.218Z,3.10
2022-08-16T18:08:42.646Z,2.97
2022-08-16T18:12:50.797Z,2.50
2022-08-16T18:16:49.339Z,2.70
2022-08-16T18:21:00.792Z,2.53
2022-08-16T18:24:53.827Z,2.80
2022-08-16T18:28:46.334Z,2.70
2022-08-16T18:32:48.835Z,2.90
2022-08-16T18:36:41.426Z,2.90
2022-08-16T18:40:34.415Z,2.90
2022-08-16T18:44:30.081Z,2.70
2022-08-16T18:48:27.570Z,2.90
2022-08-16T18:52:25.526Z,3.10
2022-08-16T18:56:18.495Z,3.10
2022-08-16T19:00:13.729Z,2.70
2022-08-16T19:04:06.571Z,3.22
2022-08-16T19:08:19.517Z,3.17
2022-08-16T19:12:16.101Z,2.85
2022-08-16T19:16:08.926Z,3.20
2022-08-16T19:20:04.826Z,2.72
2022-08-16T19:24:00.230Z,2.70
2022-08-16T19:27:52.938Z,2.88
2022-08-16T19:31:45.522Z,2.90
2022-08-16T19:35:38.963Z,3.10
2022-08-16T19:39:32.753Z,2.70
2022-08-16T19:43:25.866Z,2.90
2022-08-16T19:47:19.065Z,2.95
2022-08-16T19:51:12.926Z,3.13
2022-08-16T19:55:07.913Z,3.05
2022-08-16T19:59:19.268Z,3.20
2022-08-16T20:03:16.821Z,3.00
2022-08-16T20:11:06.348Z,2.93
2022-08-16T20:14:59.584Z,2.90
2022-08-16T20:18:52.380Z,2.67
2022-08-16T20:22:54.420Z,3.28
2022-08-16T20:26:47.332Z,2.90
2022-08-16T20:30:40.006Z,2.90
2022-08-16T20:34:33.077Z,2.70
2022-08-16T20:38:25.621Z,2.80
2022-08-16T20:42:26.731Z,3.00
2022-08-16T20:46:19.927Z,3.00
2022-08-16T20:50:12.418Z,3.17
2022-08-16T20:54:11.143Z,2.70
2022-08-16T20:58:07.529Z,2.95
2022-08-16T21:02:01.518Z,3.42
2022-08-16T21:05:57.635Z,2.97
2022-08-16T21:09:50.303Z,3.35
2022-08-16T21:13:43.220Z,3.50
2022-08-16T21:17:35.772Z,3.20
2022-08-16T21:21:32.122Z,3.50
2022-08-16T21:25:27.141Z,3.22
2022-08-16T21:29:19.757Z,3.20
2022-08-16T21:33:16.866Z,3.60
2022-08-16T21:37:10.106Z,3.28
2022-08-16T21:41:05.793Z,3.30
2022-08-16T21:44:58.342Z,3.42
2022-08-16T21:48:50.837Z,3.22
2022-08-16T21:52:43.504Z,3.10
2022-08-16T21:56:36.275Z,3.25
2022-08-16T22:00:29.748Z,3.38
2022-08-16T22:04:36.989Z,3.22
2022-08-16T22:08:31.481Z,3.17
2022-08-16T22:12:27.627Z,3.50
2022-08-16T22:16:20.118Z,3.10
2022-08-16T22:20:14.338Z,3.55
2022-08-16T22:24:07.374Z,3.40
2022-08-16T22:28:00.219Z,3.45
2022-08-16T22:31:53.098Z,3.53
2022-08-16T22:35:58.664Z,3.67
2022-08-16T22:39:51.213Z,3.70
2022-08-16T22:43:44.765Z,3.67
2022-08-16T22:47:37.345Z,4.00
2022-08-16T22:51:30.453Z,3.50
2022-08-16T22:55:25.949Z,3.35
2022-08-16T22:59:18.893Z,3.70
2022-08-16T23:03:20.393Z,3.88
2022-08-16T23:07:12.755Z,3.80
2022-08-16T23:11:15.364Z,3.90
2022-08-16T23:15:08.417Z,4.20
2022-08-16T23:19:08.713Z,4.18
2022-08-16T23:23:19.492Z,4.25
2022-08-16T23:27:14.273Z,3.75
2022-08-16T23:31:07.502Z,4.10
2022-08-16T23:35:04.432Z,4.30
2022-08-16T23:38:57.134Z,3.80
2022-08-16T23:43:11.503Z,4.13
2022-08-16T23:47:06.209Z,3.80
2022-08-16T23:51:00.894Z,3.65
2022-08-16T23:54:53.395Z,3.70
2022-08-16T23:58:54.325Z,3.85
